Terminal Aerodrome Forecast
Issued by NWS Corpus Christi, TX

Home | Current Version | Previous Version | Text Only | Print | Product List | Glossary On
Versions: 1 2 3 4 5 6 7 8 9 10 11 12 13 14 15 16 17 18 19 20 21 22 23 24
872
FTUS44 KCRP 271127
TAFCRP
TAF
KCRP 271127Z 2712/2812 14012KT P6SM SCT025 BKN200
     FM271500 17015G20KT P6SM BKN030
      TEMPO 2717/2720 VRB15G30KT 5SM TSRA OVC025CB
     FM272000 15020G28KT P6SM SCT040 BKN250
     FM280400 15012KT P6SM SCT025 BKN250
     FM280800 12008KT P6SM BKN015=

USA.gov is the U.S. government's official web portal to all federal, state and local government web resources and services.